Time;durP1;ratioP1;P1;durP2;ratioP2;P2;SDS_P1;SDS_P2;PMS_P1;PMS_P2;Temp;Humidity;BMP_temperature;BMP_pressure;BME280_temperature;BME280_humidity;BME280_pressure;Samples;Min_cycle;Max_cycle;Signal;HPM_P1;HPM_P2
2023/12/10 00:02:24;;;;;;;;;;;8.10;99.90;;;;;;5069725;28;20001;-80
2023/12/10 00:04:51;;;;;;;;;;;8.10;99.90;;;;;;5067165;28;19998;-79
2023/12/10 00:07:18;;;;;;;;;;;8.10;99.90;;;;;;5068798;28;20010;-78
2023/12/10 00:09:45;;;;;;;;;;;8.10;99.90;;;;;;5068411;28;19980;-77
2023/12/10 00:12:12;;;;;;;;;;;8.10;99.90;;;;;;5066179;28;20445;-79
2023/12/10 00:14:38;;;;;;;;;;;8.10;99.90;;;;;;5064314;28;19980;-79
2023/12/10 00:17:05;;;;;;;;;;;8.10;99.90;;;;;;5072162;28;19991;-80
2023/12/10 00:19:32;;;;;;;;;;;8.10;99.90;;;;;;5069581;28;19976;-82
2023/12/10 00:21:59;;;;;;;;;;;8.20;99.90;;;;;;5073646;28;20022;-80
2023/12/10 00:24:26;;;;;;;;;;;8.20;99.90;;;;;;5068272;28;19995;-80
2023/12/10 00:26:53;;;;;;;;;;;8.10;99.90;;;;;;5069649;28;20781;-81
2023/12/10 00:29:20;;;;;;;;;;;8.10;99.90;;;;;;5067133;28;20046;-80
2023/12/10 00:31:47;;;;;;;;;;;8.20;99.90;;;;;;5070164;28;20370;-80
2023/12/10 00:34:14;;;;;;;;;;;8.20;99.90;;;;;;5070707;28;20101;-79
2023/12/10 00:36:40;;;;;;;;;;;8.10;99.90;;;;;;5068105;28;19999;-80
2023/12/10 00:39:09;;;;;;;;;;;8.20;99.90;;;;;;5065793;28;19983;-80
2023/12/10 00:41:37;;;;;;;;;;;8.20;99.90;;;;;;5068724;28;20074;-82
2023/12/10 00:44:04;;;;;;;;;;;8.20;99.90;;;;;;5070257;28;19995;-81
2023/12/10 00:46:30;;;;;;;;;;;8.10;99.90;;;;;;5065712;28;20484;-80
2023/12/10 00:48:57;;;;;;;;;;;8.20;99.90;;;;;;5071002;28;19982;-79
2023/12/10 00:51:23;;;;;;;;;;;8.10;99.90;;;;;;5075339;28;19979;-76
2023/12/10 00:53:50;;;;;;;;;;;8.20;99.90;;;;;;5071497;28;19980;-80
2023/12/10 00:56:17;;;;;;;;;;;8.20;99.90;;;;;;5068336;28;19995;-79
2023/12/10 00:58:45;;;;;;;;;;;8.20;99.90;;;;;;5071841;28;20665;-77
2023/12/10 01:01:11;;;;;;;;;;;8.20;99.90;;;;;;5077379;28;19991;-80
2023/12/10 01:03:38;;;;;;;;;;;8.20;99.90;;;;;;5075563;28;20041;-79
2023/12/10 01:06:05;;;;;;;;;;;8.20;99.90;;;;;;5074897;28;20069;-81
2023/12/10 01:08:31;;;;;;;;;;;8.20;99.90;;;;;;5078209;28;19987;-81
2023/12/10 01:10:58;;;;;;;;;;;8.20;99.90;;;;;;5080451;28;20349;-80
2023/12/10 01:13:25;;;;;;;;;;;8.20;99.90;;;;;;5081757;28;19982;-81
2023/12/10 01:15:54;;;;;;;;;;;8.20;99.90;;;;;;5076686;28;19995;-81
2023/12/10 01:18:21;;;;;;;;;;;8.20;99.90;;;;;;5071018;28;19983;-79
2023/12/10 01:20:47;;;;;;;;;;;8.20;99.90;;;;;;5072892;28;20396;-80
2023/12/10 01:23:14;;;;;;;;;;;8.20;99.90;;;;;;5066490;28;20507;-80
2023/12/10 01:25:41;;;;;;;;;;;8.20;99.90;;;;;;5068091;28;20029;-78
2023/12/10 01:28:07;;;;;;;;;;;8.20;99.90;;;;;;5066376;28;19991;-79
2023/12/10 01:30:34;;;;;;;;;;;8.20;99.90;;;;;;5062423;28;20010;-81
2023/12/10 01:33:02;;;;;;;;;;;8.20;99.90;;;;;;5067411;28;19971;-80
2023/12/10 01:35:29;;;;;;;;;;;8.20;99.90;;;;;;5066892;28;20015;-82
2023/12/10 01:37:56;;;;;;;;;;;8.20;99.90;;;;;;5066984;28;19991;-79
2023/12/10 01:40:22;;;;;;;;;;;8.20;99.90;;;;;;5068364;28;20002;-79
2023/12/10 01:42:49;;;;;;;;;;;8.30;99.90;;;;;;5070022;28;20385;-80
2023/12/10 01:45:16;;;;;;;;;;;8.30;99.90;;;;;;5068106;28;20026;-78
2023/12/10 01:47:43;;;;;;;;;;;8.30;99.90;;;;;;5063132;28;20090;-80
2023/12/10 01:50:12;;;;;;;;;;;8.30;99.90;;;;;;5068529;28;19975;-80
2023/12/10 01:52:39;;;;;;;;;;;8.20;99.90;;;;;;5066600;28;20011;-81
2023/12/10 01:55:07;;;;;;;;;;;8.30;99.90;;;;;;5063152;28;19995;-81
2023/12/10 01:57:34;;;;;;;;;;;8.30;99.90;;;;;;5067269;28;20030;-78
2023/12/10 02:00:00;;;;;;;;;;;8.30;99.90;;;;;;5066517;28;20468;-77
2023/12/10 02:02:28;;;;;;;;;;;8.30;99.90;;;;;;5067811;28;19995;-81
2023/12/10 02:04:55;;;;;;;;;;;8.30;99.90;;;;;;5066880;28;20485;-81
2023/12/10 02:07:23;;;;;;;;;;;8.30;99.90;;;;;;5064941;28;19999;-79
2023/12/10 02:09:49;;;;;;;;;;;8.30;99.90;;;;;;5063996;28;19975;-79
2023/12/10 02:12:16;;;;;;;;;;;8.30;99.90;;;;;;5065761;28;20434;-81
2023/12/10 02:14:43;;;;;;;;;;;8.30;99.90;;;;;;5064861;28;19983;-78
2023/12/10 02:17:09;;;;;;;;;;;8.30;99.90;;;;;;5065696;28;19995;-79
2023/12/10 02:19:36;;;;;;;;;;;8.30;99.90;;;;;;5062707;28;20025;-79
2023/12/10 02:22:04;;;;;;;;;;;8.30;99.90;;;;;;5063845;28;20044;-81
2023/12/10 02:24:33;;;;;;;;;;;8.30;99.90;;;;;;5064953;28;19996;-81
2023/12/10 02:27:01;;;;;;;;;;;8.20;99.90;;;;;;5064365;28;20003;-79
2023/12/10 02:29:27;;;;;;;;;;;8.20;99.90;;;;;;5064773;28;19986;-81
2023/12/10 02:31:54;;;;;;;;;;;8.20;99.90;;;;;;5059241;28;20034;-80
2023/12/10 02:34:22;;;;;;;;;;;8.20;99.90;;;;;;5069480;28;20021;-81
2023/12/10 02:36:48;;;;;;;;;;;8.10;99.90;;;;;;5060857;28;19991;-79
2023/12/10 02:39:15;;;;;;;;;;;8.20;99.90;;;;;;5065025;28;19983;-80
2023/12/10 02:41:41;;;;;;;;;;;8.10;99.90;;;;;;5067041;28;20135;-80
2023/12/10 02:44:09;;;;;;;;;;;8.10;99.90;;;;;;5064282;28;20030;-80
2023/12/10 02:46:36;;;;;;;;;;;8.10;99.90;;;;;;5060800;28;20473;-81
2023/12/10 02:49:02;;;;;;;;;;;8.10;99.90;;;;;;5065444;28;19976;-79
2023/12/10 02:51:29;;;;;;;;;;;8.10;99.90;;;;;;5064494;28;19983;-79
2023/12/10 02:53:55;;;;;;;;;;;8.10;99.90;;;;;;5062344;28;19986;-78
2023/12/10 02:56:22;;;;;;;;;;;8.10;99.90;;;;;;5063816;28;20000;-83
2023/12/10 02:58:49;;;;;;;;;;;8.00;99.90;;;;;;5062398;28;20385;-78
2023/12/10 03:01:16;;;;;;;;;;;8.00;99.90;;;;;;5062412;28;20006;-80
2023/12/10 03:03:43;;;;;;;;;;;8.00;99.90;;;;;;5065928;28;19980;-79
2023/12/10 03:06:10;;;;;;;;;;;8.00;99.90;;;;;;5063443;28;19996;-80
2023/12/10 03:08:37;;;;;;;;;;;8.00;99.90;;;;;;5062462;28;20066;-80
2023/12/10 03:11:03;;;;;;;;;;;8.00;99.90;;;;;;5066592;28;19982;-79
2023/12/10 03:13:30;;;;;;;;;;;7.90;99.90;;;;;;5067668;28;19975;-79
2023/12/10 03:15:56;;;;;;;;;;;7.90;99.90;;;;;;5061419;28;19995;-81
2023/12/10 03:18:25;;;;;;;;;;;7.90;99.90;;;;;;5065379;28;20005;-80
2023/12/10 03:20:52;;;;;;;;;;;7.90;99.90;;;;;;5063161;28;19980;-80
2023/12/10 03:23:18;;;;;;;;;;;7.90;99.90;;;;;;5063667;28;19979;-79
2023/12/10 03:25:45;;;;;;;;;;;7.90;99.90;;;;;;5062942;28;20003;-79
2023/12/10 03:28:11;;;;;;;;;;;7.90;99.90;;;;;;5064736;28;20617;-80
2023/12/10 03:30:38;;;;;;;;;;;7.90;99.90;;;;;;5063619;28;19995;-80
2023/12/10 03:33:05;;;;;;;;;;;7.90;99.90;;;;;;5061678;28;20623;-80
2023/12/10 03:35:32;;;;;;;;;;;7.90;99.90;;;;;;5065303;28;20014;-79
2023/12/10 03:37:59;;;;;;;;;;;7.90;99.90;;;;;;5063351;28;19994;-81
2023/12/10 03:40:26;;;;;;;;;;;7.90;99.90;;;;;;5062736;28;19990;-78
2023/12/10 03:42:52;;;;;;;;;;;7.90;99.90;;;;;;5061607;28;20634;-80
2023/12/10 03:45:19;;;;;;;;;;;7.80;99.90;;;;;;5062317;28;20716;-82
2023/12/10 03:47:46;;;;;;;;;;;7.90;99.90;;;;;;5064385;28;19995;-80
2023/12/10 03:50:13;;;;;;;;;;;7.90;99.90;;;;;;5064025;28;20696;-80
2023/12/10 03:52:41;;;;;;;;;;;7.90;99.90;;;;;;5064547;28;20003;-81
2023/12/10 03:55:08;;;;;;;;;;;7.90;99.90;;;;;;5064212;28;19975;-78
2023/12/10 03:57:35;;;;;;;;;;;7.90;99.90;;;;;;5063421;28;19998;-78
2023/12/10 04:00:02;;;;;;;;;;;7.90;99.90;;;;;;5061597;28;19979;-78
2023/12/10 04:02:29;;;;;;;;;;;7.90;99.90;;;;;;5065627;28;19991;-82
2023/12/10 04:04:55;;;;;;;;;;;7.90;99.90;;;;;;5062771;28;20078;-77
2023/12/10 04:07:22;;;;;;;;;;;7.90;99.90;;;;;;5062901;28;19991;-80
2023/12/10 04:09:49;;;;;;;;;;;7.90;99.90;;;;;;5063134;28;19975;-79
2023/12/10 04:12:16;;;;;;;;;;;7.90;99.90;;;;;;5064474;28;19979;-79
2023/12/10 04:14:46;;;;;;;;;;;7.90;99.90;;;;;;5063788;28;19975;-79
2023/12/10 04:17:12;;;;;;;;;;;7.90;99.90;;;;;;5063595;28;19999;-77
2023/12/10 04:19:39;;;;;;;;;;;7.90;99.90;;;;;;5059547;28;19975;-78
2023/12/10 04:22:05;;;;;;;;;;;7.90;99.90;;;;;;5064297;28;19979;-79
2023/12/10 04:24:32;;;;;;;;;;;7.90;99.90;;;;;;5064628;28;20320;-79
2023/12/10 04:27:00;;;;;;;;;;;7.90;99.90;;;;;;5065233;28;20004;-83
2023/12/10 04:29:26;;;;;;;;;;;7.90;99.90;;;;;;5066900;28;20009;-79
2023/12/10 04:31:53;;;;;;;;;;;7.90;99.90;;;;;;5063516;28;21663;-81
2023/12/10 04:34:19;;;;;;;;;;;7.90;99.90;;;;;;5064923;28;19972;-82
2023/12/10 04:36:46;;;;;;;;;;;7.90;99.90;;;;;;5066979;28;19999;-80
2023/12/10 04:39:13;;;;;;;;;;;7.90;99.90;;;;;;5067149;28;19975;-79
2023/12/10 04:41:39;;;;;;;;;;;7.90;99.90;;;;;;5067745;28;20021;-79
2023/12/10 04:44:07;;;;;;;;;;;7.90;99.90;;;;;;5072081;28;19979;-81
2023/12/10 04:46:34;;;;;;;;;;;7.90;99.90;;;;;;5070921;28;20025;-82
2023/12/10 04:49:00;;;;;;;;;;;7.90;99.90;;;;;;5073930;28;19980;-80
2023/12/10 04:51:27;;;;;;;;;;;7.90;99.90;;;;;;5069424;28;20015;-78
2023/12/10 04:53:53;;;;;;;;;;;8.00;99.90;;;;;;5075424;28;19979;-80
2023/12/10 04:56:20;;;;;;;;;;;8.00;99.90;;;;;;5071402;28;20002;-80
2023/12/10 04:58:46;;;;;;;;;;;8.00;99.90;;;;;;5066713;28;19983;-80
2023/12/10 05:01:14;;;;;;;;;;;8.00;99.90;;;;;;5062885;28;19991;-80
2023/12/10 05:03:41;;;;;;;;;;;8.00;99.90;;;;;;5072439;28;19979;-79
2023/12/10 05:06:08;;;;;;;;;;;8.00;99.90;;;;;;5069627;28;20010;-77
2023/12/10 05:08:35;;;;;;;;;;;8.00;99.90;;;;;;5069727;28;19979;-81
2023/12/10 05:11:01;;;;;;;;;;;8.00;99.90;;;;;;5070876;28;19971;-82
2023/12/10 05:13:28;;;;;;;;;;;8.00;99.90;;;;;;5072532;28;20070;-78
2023/12/10 05:15:56;;;;;;;;;;;8.00;99.90;;;;;;5066763;28;19991;-80
2023/12/10 05:18:24;;;;;;;;;;;8.00;99.90;;;;;;5069702;28;20062;-80
2023/12/10 05:20:51;;;;;;;;;;;8.00;99.90;;;;;;5070379;28;19986;-81
2023/12/10 05:23:18;;;;;;;;;;;8.00;99.90;;;;;;5070209;28;20010;-81
2023/12/10 05:25:44;;;;;;;;;;;8.00;99.90;;;;;;5073018;28;19995;-80
2023/12/10 05:28:11;;;;;;;;;;;8.00;99.90;;;;;;5068954;28;20155;-80
2023/12/10 05:30:38;;;;;;;;;;;8.00;99.90;;;;;;5067928;28;19991;-79
2023/12/10 05:33:04;;;;;;;;;;;8.00;99.90;;;;;;5072490;28;19967;-79
2023/12/10 05:35:34;;;;;;;;;;;8.00;99.90;;;;;;5073067;28;19983;-80
2023/12/10 05:38:01;;;;;;;;;;;8.00;99.90;;;;;;5069364;28;20334;-80
2023/12/10 05:40:27;;;;;;;;;;;8.00;99.90;;;;;;5072339;28;19975;-79
2023/12/10 05:42:54;;;;;;;;;;;8.00;99.90;;;;;;5066592;28;19975;-80
2023/12/10 05:45:21;;;;;;;;;;;8.00;99.90;;;;;;5068749;28;20621;-79
2023/12/10 05:47:48;;;;;;;;;;;8.00;99.90;;;;;;5073150;28;20070;-81
2023/12/10 05:50:14;;;;;;;;;;;8.00;99.90;;;;;;5072221;28;19983;-79
2023/12/10 05:52:42;;;;;;;;;;;8.10;99.90;;;;;;5074922;28;20383;-79
2023/12/10 05:55:09;;;;;;;;;;;8.00;99.90;;;;;;5067872;28;20792;-80
2023/12/10 05:57:36;;;;;;;;;;;8.00;99.90;;;;;;5070742;28;19991;-80
2023/12/10 06:00:04;;;;;;;;;;;8.00;99.90;;;;;;5066784;28;19987;-80
2023/12/10 06:02:31;;;;;;;;;;;8.00;99.90;;;;;;5067176;28;20042;-79
2023/12/10 06:04:57;;;;;;;;;;;8.00;99.90;;;;;;5071913;28;19995;-82
2023/12/10 06:07:24;;;;;;;;;;;8.00;99.90;;;;;;5067032;28;19991;-79
2023/12/10 06:09:52;;;;;;;;;;;8.00;99.90;;;;;;5070298;28;19983;-83
2023/12/10 06:12:18;;;;;;;;;;;8.00;99.90;;;;;;5066700;28;19979;-82
2023/12/10 06:14:45;;;;;;;;;;;8.00;99.90;;;;;;5066073;28;19979;-79
2023/12/10 06:17:12;;;;;;;;;;;8.00;99.90;;;;;;5065028;28;20003;-81
2023/12/10 06:19:38;;;;;;;;;;;8.00;99.90;;;;;;5067087;28;20081;-82
2023/12/10 06:22:05;;;;;;;;;;;8.00;99.90;;;;;;5070090;28;19975;-77
2023/12/10 06:24:31;;;;;;;;;;;8.00;99.90;;;;;;5070169;28;19979;-79
2023/12/10 06:26:59;;;;;;;;;;;8.00;99.90;;;;;;5068597;28;19999;-80
2023/12/10 06:29:26;;;;;;;;;;;8.00;99.90;;;;;;5066972;28;20042;-80
2023/12/10 06:31:52;;;;;;;;;;;8.00;99.90;;;;;;5070055;28;19999;-80
2023/12/10 06:34:19;;;;;;;;;;;8.00;99.90;;;;;;5069013;28;19975;-79
2023/12/10 06:36:45;;;;;;;;;;;8.00;99.90;;;;;;5068626;28;19988;-78
2023/12/10 06:39:12;;;;;;;;;;;8.00;99.90;;;;;;5069249;28;19975;-79
2023/12/10 06:41:38;;;;;;;;;;;8.00;99.90;;;;;;5070970;28;19983;-79
2023/12/10 06:44:09;;;;;;;;;;;8.00;99.90;;;;;;5067820;28;20071;-80
2023/12/10 06:46:36;;;;;;;;;;;8.00;99.90;;;;;;5062778;28;20010;-68
2023/12/10 06:49:03;;;;;;;;;;;8.00;99.90;;;;;;5063585;28;20028;-68
2023/12/10 06:51:29;;;;;;;;;;;8.00;99.90;;;;;;5058517;28;19984;-68
2023/12/10 06:53:56;;;;;;;;;;;8.00;99.90;;;;;;5061897;28;19983;-69
2023/12/10 06:56:22;;;;;;;;;;;8.00;99.90;;;;;;5061081;28;20004;-78
2023/12/10 06:58:49;;;;;;;;;;;8.00;99.90;;;;;;5059434;28;20361;-77
2023/12/10 07:01:17;;;;;;;;;;;8.00;99.90;;;;;;5059375;28;19996;-77
2023/12/10 07:03:43;;;;;;;;;;;8.00;99.90;;;;;;5065207;28;20417;-77
2023/12/10 07:06:10;;;;;;;;;;;8.00;99.90;;;;;;5063011;28;19995;-77
2023/12/10 07:08:37;;;;;;;;;;;8.00;99.90;;;;;;5064440;28;19978;-78
2023/12/10 07:11:10;;;;;;;;;;;8.00;99.90;;;;;;5066867;28;19975;-79
2023/12/10 07:13:37;;;;;;;;;;;8.00;99.90;;;;;;5060248;28;20477;-77
2023/12/10 07:16:04;;;;;;;;;;;8.00;99.90;;;;;;5061684;28;20007;-78
2023/12/10 07:18:31;;;;;;;;;;;8.00;99.90;;;;;;5061376;28;20681;-77
2023/12/10 07:20:58;;;;;;;;;;;8.00;99.90;;;;;;5065007;28;19983;-78
2023/12/10 07:23:25;;;;;;;;;;;8.00;99.90;;;;;;5065614;28;19983;-77
2023/12/10 07:25:51;;;;;;;;;;;8.00;99.90;;;;;;5063764;28;19998;-77
2023/12/10 07:28:18;;;;;;;;;;;8.00;99.90;;;;;;5063081;28;19986;-78
2023/12/10 07:30:44;;;;;;;;;;;8.00;99.90;;;;;;5062466;28;19998;-78
2023/12/10 07:33:11;;;;;;;;;;;8.00;99.90;;;;;;5062014;28;19979;-78
2023/12/10 07:35:39;;;;;;;;;;;8.00;99.90;;;;;;5066980;28;19975;-79
2023/12/10 07:38:06;;;;;;;;;;;8.00;99.90;;;;;;5065248;28;19995;-79
2023/12/10 07:40:32;;;;;;;;;;;8.00;99.90;;;;;;5064998;28;19982;-79
2023/12/10 07:42:59;;;;;;;;;;;8.00;99.90;;;;;;5059748;28;19979;-79
2023/12/10 07:45:25;;;;;;;;;;;8.00;99.90;;;;;;5060896;28;20053;-78
2023/12/10 07:47:52;;;;;;;;;;;8.00;99.90;;;;;;5062475;28;20104;-77
2023/12/10 07:50:18;;;;;;;;;;;8.00;99.90;;;;;;5064733;28;19979;-78
2023/12/10 07:52:46;;;;;;;;;;;8.00;99.90;;;;;;5065143;28;21136;-78
2023/12/10 07:55:13;;;;;;;;;;;8.00;99.90;;;;;;5062648;28;19982;-77
2023/12/10 07:57:39;;;;;;;;;;;8.00;99.90;;;;;;5057453;28;20003;-69
2023/12/10 08:00:06;;;;;;;;;;;8.00;99.90;;;;;;5059968;28;19979;-69
2023/12/10 08:02:33;;;;;;;;;;;8.00;99.90;;;;;;5053592;28;19979;-70
2023/12/10 08:04:59;;;;;;;;;;;8.00;99.90;;;;;;5061384;28;19990;-69
2023/12/10 08:07:26;;;;;;;;;;;8.00;99.90;;;;;;5059428;28;20000;-68
2023/12/10 08:09:54;;;;;;;;;;;8.00;99.90;;;;;;5062555;28;20002;-69
2023/12/10 08:12:20;;;;;;;;;;;8.00;99.90;;;;;;5061933;28;19979;-69
2023/12/10 08:14:47;;;;;;;;;;;8.00;99.90;;;;;;5057735;28;20354;-68
2023/12/10 08:17:13;;;;;;;;;;;8.00;99.90;;;;;;5065526;28;20002;-69
2023/12/10 08:19:40;;;;;;;;;;;8.00;99.90;;;;;;5067217;28;19975;-69
2023/12/10 08:22:07;;;;;;;;;;;8.10;99.90;;;;;;5064582;28;20058;-69
2023/12/10 08:24:35;;;;;;;;;;;8.00;99.90;;;;;;5061904;28;20106;-69
2023/12/10 08:27:03;;;;;;;;;;;8.00;99.90;;;;;;5064669;28;19999;-68
2023/12/10 08:29:29;;;;;;;;;;;8.10;99.90;;;;;;5065100;28;20573;-69
2023/12/10 08:31:56;;;;;;;;;;;8.10;99.90;;;;;;5067181;28;20007;-69
2023/12/10 08:34:22;;;;;;;;;;;8.00;99.90;;;;;;5068636;28;19980;-69
2023/12/10 08:36:49;;;;;;;;;;;8.10;99.90;;;;;;5069854;28;19991;-69
2023/12/10 08:39:15;;;;;;;;;;;8.00;99.90;;;;;;5066358;28;20445;-69
2023/12/10 08:41:42;;;;;;;;;;;8.10;99.90;;;;;;5067899;28;19982;-69
2023/12/10 08:44:10;;;;;;;;;;;8.10;99.90;;;;;;5066826;28;19975;-69
2023/12/10 08:46:36;;;;;;;;;;;8.10;99.90;;;;;;5066896;28;20002;-69
2023/12/10 08:49:03;;;;;;;;;;;8.10;99.90;;;;;;5068324;28;19980;-70
2023/12/10 08:51:29;;;;;;;;;;;8.00;99.90;;;;;;5066796;28;20468;-69
2023/12/10 08:53:56;;;;;;;;;;;8.10;99.90;;;;;;5069864;28;19987;-69
2023/12/10 08:56:23;;;;;;;;;;;8.10;99.90;;;;;;5067462;28;20006;-68
2023/12/10 08:58:50;;;;;;;;;;;8.10;99.90;;;;;;5062754;28;19975;-70
2023/12/10 09:01:18;;;;;;;;;;;8.10;99.90;;;;;;5065835;28;20115;-69
2023/12/10 09:03:45;;;;;;;;;;;8.10;99.90;;;;;;5064160;28;19982;-69
2023/12/10 09:06:11;;;;;;;;;;;8.10;99.90;;;;;;5067087;28;20000;-70
2023/12/10 09:08:38;;;;;;;;;;;8.10;99.90;;;;;;5066102;28;20044;-68
2023/12/10 09:11:04;;;;;;;;;;;8.10;99.90;;;;;;5066972;28;19985;-68
2023/12/10 09:13:31;;;;;;;;;;;8.10;99.90;;;;;;5059779;28;19984;-68
2023/12/10 09:15:58;;;;;;;;;;;8.10;99.90;;;;;;5066049;28;19997;-69
2023/12/10 09:18:26;;;;;;;;;;;8.10;99.90;;;;;;5063952;28;19979;-69
2023/12/10 09:20:53;;;;;;;;;;;8.10;99.90;;;;;;5071720;28;19975;-70
2023/12/10 09:23:19;;;;;;;;;;;8.10;99.90;;;;;;5064867;28;20057;-68
2023/12/10 09:25:46;;;;;;;;;;;8.10;99.90;;;;;;5064297;28;20227;-70
2023/12/10 09:28:12;;;;;;;;;;;8.10;99.90;;;;;;5064866;28;19991;-68
2023/12/10 09:30:39;;;;;;;;;;;8.10;99.90;;;;;;5063663;28;19991;-70
2023/12/10 09:33:06;;;;;;;;;;;8.10;99.90;;;;;;5068533;28;19975;-69
2023/12/10 09:35:35;;;;;;;;;;;8.20;99.90;;;;;;5065297;28;20066;-69
2023/12/10 09:38:03;;;;;;;;;;;8.10;99.90;;;;;;5068422;28;20004;-70
2023/12/10 09:40:31;;;;;;;;;;;8.20;99.90;;;;;;5066823;28;19976;-69
2023/12/10 09:42:57;;;;;;;;;;;8.20;99.90;;;;;;5068569;28;19997;-69
2023/12/10 09:45:24;;;;;;;;;;;8.20;99.90;;;;;;5064203;28;19979;-70
2023/12/10 09:47:51;;;;;;;;;;;8.20;99.90;;;;;;5066155;28;20003;-69
2023/12/10 09:50:18;;;;;;;;;;;8.20;99.90;;;;;;5066395;28;20023;-69
2023/12/10 09:52:47;;;;;;;;;;;8.20;99.90;;;;;;5067762;28;19976;-68
2023/12/10 09:55:13;;;;;;;;;;;8.20;99.90;;;;;;5066953;28;19982;-68
2023/12/10 09:57:40;;;;;;;;;;;8.20;99.90;;;;;;5068080;28;20699;-69
2023/12/10 10:00:07;;;;;;;;;;;8.20;99.90;;;;;;5064911;28;19983;-68
2023/12/10 10:02:34;;;;;;;;;;;8.20;99.90;;;;;;5066392;28;19984;-68
2023/12/10 10:05:01;;;;;;;;;;;8.20;99.90;;;;;;5062290;28;20054;-68
2023/12/10 10:07:29;;;;;;;;;;;8.30;99.90;;;;;;5066958;28;20010;-68
2023/12/10 10:09:57;;;;;;;;;;;8.30;99.90;;;;;;5064453;28;19975;-68
2023/12/10 10:12:28;;;;;;;;;;;8.30;99.90;;;;;;5067777;28;19983;-68
2023/12/10 10:14:55;;;;;;;;;;;8.30;99.90;;;;;;5063868;28;19979;-69
2023/12/10 10:17:26;;;;;;;;;;;8.30;99.90;;;;;;5068003;28;20078;-69
2023/12/10 10:19:52;;;;;;;;;;;8.30;99.90;;;;;;5064794;28;20457;-68
2023/12/10 10:22:19;;;;;;;;;;;8.30;99.90;;;;;;5064496;28;19987;-69
2023/12/10 10:24:45;;;;;;;;;;;8.30;99.90;;;;;;5065580;28;19983;-68
2023/12/10 10:27:14;;;;;;;;;;;8.30;99.90;;;;;;5052641;28;20007;-70
2023/12/10 10:29:41;;;;;;;;;;;8.30;99.90;;;;;;5060734;28;19980;-69
2023/12/10 10:32:09;;;;;;;;;;;8.30;99.90;;;;;;5062231;28;20530;-68
2023/12/10 10:34:36;;;;;;;;;;;8.30;99.90;;;;;;5052569;28;20391;-71
2023/12/10 10:37:03;;;;;;;;;;;8.40;99.90;;;;;;5064856;28;19991;-71
2023/12/10 10:39:30;;;;;;;;;;;8.40;99.90;;;;;;5062980;28;19987;-68
2023/12/10 10:42:04;;;;;;;;;;;8.40;99.90;;;;;;5065249;28;20575;-69
2023/12/10 10:44:32;;;;;;;;;;;8.40;99.90;;;;;;5063681;28;19983;-68
2023/12/10 10:46:59;;;;;;;;;;;8.40;99.90;;;;;;5063880;28;19995;-71
2023/12/10 10:49:26;;;;;;;;;;;8.40;99.90;;;;;;5066194;28;19983;-69
2023/12/10 10:51:53;;;;;;;;;;;8.40;99.90;;;;;;5062971;28;19975;-69
2023/12/10 10:54:19;;;;;;;;;;;8.40;99.90;;;;;;5065328;28;19988;-68
2023/12/10 10:56:46;;;;;;;;;;;8.40;99.90;;;;;;5065839;28;19999;-67
2023/12/10 10:59:27;;;;;;;;;;;8.50;99.90;;;;;;5063412;28;19976;-66
2023/12/10 11:01:56;;;;;;;;;;;8.50;99.90;;;;;;5066360;28;20002;-66
2023/12/10 11:04:23;;;;;;;;;;;8.50;99.90;;;;;;5064073;28;20065;-67
2023/12/10 11:06:50;;;;;;;;;;;8.50;99.90;;;;;;5062803;28;21163;-69
2023/12/10 11:09:17;;;;;;;;;;;8.50;99.90;;;;;;5064162;28;20025;-66
2023/12/10 11:11:43;;;;;;;;;;;8.50;99.90;;;;;;5063836;28;20023;-66
2023/12/10 11:14:19;;;;;;;;;;;8.50;99.90;;;;;;5064406;28;19980;-68
2023/12/10 11:16:47;;;;;;;;;;;8.60;99.90;;;;;;5067147;28;20116;-67
2023/12/10 11:19:17;;;;;;;;;;;8.60;99.90;;;;;;5065954;28;19975;-67
2023/12/10 11:21:44;;;;;;;;;;;8.60;99.90;;;;;;5065867;28;20484;-66
2023/12/10 11:24:10;;;;;;;;;;;8.60;99.90;;;;;;5060800;28;19991;-68
2023/12/10 11:26:37;;;;;;;;;;;8.60;99.90;;;;;;5063176;28;19999;-66
2023/12/10 11:29:03;;;;;;;;;;;8.60;99.90;;;;;;5063673;28;19982;-67
2023/12/10 11:31:30;;;;;;;;;;;8.60;99.90;;;;;;5064227;28;20521;-66
2023/12/10 11:33:56;;;;;;;;;;;8.60;99.90;;;;;;5066408;28;19979;-66
2023/12/10 11:36:24;;;;;;;;;;;8.70;99.90;;;;;;5065912;28;20022;-68
2023/12/10 11:38:51;;;;;;;;;;;8.60;99.90;;;;;;5064864;28;19976;-69
2023/12/10 11:41:18;;;;;;;;;;;8.70;99.90;;;;;;5063664;28;20460;-66
2023/12/10 11:43:45;;;;;;;;;;;8.60;99.90;;;;;;5065541;28;19985;-66
2023/12/10 11:46:18;;;;;;;;;;;8.70;99.90;;;;;;5061793;28;19991;-67
2023/12/10 11:48:45;;;;;;;;;;;8.70;99.90;;;;;;5063023;28;20578;-67
2023/12/10 11:51:12;;;;;;;;;;;8.70;99.90;;;;;;5064226;28;19986;-68
2023/12/10 11:53:40;;;;;;;;;;;8.70;99.90;;;;;;5066383;28;19987;-68
2023/12/10 11:56:07;;;;;;;;;;;8.70;99.90;;;;;;5058681;28;19981;-68
2023/12/10 11:58:34;;;;;;;;;;;8.70;99.90;;;;;;5062665;28;19987;-68
2023/12/10 12:01:01;;;;;;;;;;;8.70;99.90;;;;;;5064067;28;19995;-68
2023/12/10 12:03:28;;;;;;;;;;;8.80;99.90;;;;;;5060237;28;20007;-68
2023/12/10 12:05:55;;;;;;;;;;;8.80;99.90;;;;;;5061104;28;20453;-67
2023/12/10 12:08:24;;;;;;;;;;;8.80;99.90;;;;;;5063503;28;20002;-67
2023/12/10 12:10:52;;;;;;;;;;;8.80;99.90;;;;;;5063096;28;20558;-67
2023/12/10 12:13:19;;;;;;;;;;;8.80;99.90;;;;;;5063563;28;19986;-68
2023/12/10 12:15:46;;;;;;;;;;;8.80;99.90;;;;;;5060818;28;19995;-67
2023/12/10 12:18:12;;;;;;;;;;;8.80;99.90;;;;;;5059259;28;20139;-78
2023/12/10 12:20:39;;;;;;;;;;;8.80;99.90;;;;;;5058478;28;19976;-79
2023/12/10 12:23:05;;;;;;;;;;;8.80;99.90;;;;;;5058611;28;19975;-79
2023/12/10 12:25:34;;;;;;;;;;;8.80;99.90;;;;;;5064153;28;19971;-77
2023/12/10 12:28:02;;;;;;;;;;;8.90;99.90;;;;;;5060385;28;19995;-77
2023/12/10 12:30:29;;;;;;;;;;;8.80;99.90;;;;;;5061164;28;19995;-76
2023/12/10 12:32:55;;;;;;;;;;;8.90;99.90;;;;;;5063665;28;19976;-77
2023/12/10 12:35:22;;;;;;;;;;;8.90;99.90;;;;;;5062539;28;19979;-79
2023/12/10 12:37:48;;;;;;;;;;;8.90;99.90;;;;;;5060404;28;19995;-77
2023/12/10 12:40:15;;;;;;;;;;;8.90;99.90;;;;;;5062946;28;19991;-77
2023/12/10 12:42:42;;;;;;;;;;;8.90;99.90;;;;;;5060517;28;20722;-76
2023/12/10 12:45:10;;;;;;;;;;;8.90;99.90;;;;;;5060298;28;19979;-79
2023/12/10 12:47:36;;;;;;;;;;;8.90;99.90;;;;;;5063129;28;20002;-79
2023/12/10 12:50:03;;;;;;;;;;;8.90;99.90;;;;;;5064484;28;20002;-76
2023/12/10 12:52:30;;;;;;;;;;;8.90;99.90;;;;;;5062711;28;20002;-75
2023/12/10 12:54:56;;;;;;;;;;;8.90;99.90;;;;;;5056260;28;20939;-76
2023/12/10 12:57:23;;;;;;;;;;;8.90;99.90;;;;;;5051980;28;20041;-78
2023/12/10 12:59:49;;;;;;;;;;;9.00;99.90;;;;;;5058718;28;19972;-78
2023/12/10 13:02:18;;;;;;;;;;;9.00;99.90;;;;;;5061719;28;20003;-77
2023/12/10 13:04:44;;;;;;;;;;;9.00;99.90;;;;;;5063845;28;20082;-77
2023/12/10 13:07:11;;;;;;;;;;;9.00;99.90;;;;;;5062259;28;20030;-81
2023/12/10 13:09:38;;;;;;;;;;;9.00;99.90;;;;;;5062639;28;20463;-79
2023/12/10 13:12:05;;;;;;;;;;;9.00;99.90;;;;;;5060489;28;19975;-77
2023/12/10 13:14:31;;;;;;;;;;;9.00;99.90;;;;;;5063576;28;19976;-78
2023/12/10 13:16:58;;;;;;;;;;;8.90;99.90;;;;;;5061494;28;20007;-78
2023/12/10 13:19:26;;;;;;;;;;;9.00;99.90;;;;;;5064845;28;19979;-77
2023/12/10 13:21:52;;;;;;;;;;;9.00;99.90;;;;;;5065578;28;19975;-78
2023/12/10 13:24:19;;;;;;;;;;;9.00;99.90;;;;;;5063685;28;19990;-77
2023/12/10 13:26:45;;;;;;;;;;;9.00;99.90;;;;;;5062124;28;20038;-77
2023/12/10 13:29:12;;;;;;;;;;;9.00;99.90;;;;;;5063848;28;19998;-78
2023/12/10 13:31:38;;;;;;;;;;;9.00;99.90;;;;;;5064154;28;20523;-77
2023/12/10 13:34:06;;;;;;;;;;;9.00;99.90;;;;;;5063171;28;20025;-77
2023/12/10 13:36:34;;;;;;;;;;;9.00;99.90;;;;;;5062985;28;20552;-77
2023/12/10 13:39:00;;;;;;;;;;;9.00;99.90;;;;;;5058077;28;20033;-80
2023/12/10 13:41:27;;;;;;;;;;;9.00;99.90;;;;;;5064181;28;19980;-77
2023/12/10 13:43:54;;;;;;;;;;;9.00;99.90;;;;;;5058884;28;19986;-77
2023/12/10 13:46:20;;;;;;;;;;;9.00;99.90;;;;;;5059919;28;20011;-76
2023/12/10 13:48:48;;;;;;;;;;;9.00;99.90;;;;;;5062291;28;19995;-81
2023/12/10 13:51:14;;;;;;;;;;;9.00;99.90;;;;;;5061741;28;19983;-78
2023/12/10 13:53:42;;;;;;;;;;;9.10;99.90;;;;;;5062959;28;19975;-78
2023/12/10 13:56:09;;;;;;;;;;;9.10;99.90;;;;;;5064172;28;19979;-78
2023/12/10 13:58:35;;;;;;;;;;;9.00;99.90;;;;;;5060911;28;20033;-81
2023/12/10 14:01:02;;;;;;;;;;;9.10;99.90;;;;;;5057947;28;20002;-78
2023/12/10 14:03:29;;;;;;;;;;;9.00;99.90;;;;;;5057529;28;25418;-79
2023/12/10 14:05:55;;;;;;;;;;;9.10;99.90;;;;;;5062529;28;20719;-76
2023/12/10 14:08:22;;;;;;;;;;;9.00;99.90;;;;;;5060526;28;19995;-80
2023/12/10 14:10:50;;;;;;;;;;;9.10;99.90;;;;;;5064054;28;20604;-78
2023/12/10 14:13:16;;;;;;;;;;;9.10;99.90;;;;;;5054262;28;20338;-67
2023/12/10 14:15:43;;;;;;;;;;;9.10;99.90;;;;;;5058803;28;20057;-67
2023/12/10 14:18:09;;;;;;;;;;;9.10;99.90;;;;;;5059857;28;19999;-66
2023/12/10 14:20:36;;;;;;;;;;;9.10;99.90;;;;;;5060064;28;19975;-65
2023/12/10 14:23:02;;;;;;;;;;;9.10;99.90;;;;;;5061854;28;19983;-66
2023/12/10 14:25:31;;;;;;;;;;;9.20;99.90;;;;;;5064286;28;19986;-67
2023/12/10 14:27:59;;;;;;;;;;;9.20;99.90;;;;;;5062652;28;20593;-67
2023/12/10 14:30:25;;;;;;;;;;;9.20;99.90;;;;;;5056498;28;20075;-66